Dino — 3FOQ3 — position and weather

sailwx.info

Track history (hours):
 
Tides and Currents Weather Stations Pressure Air Temp Water Temp Dewpoint Dewpoint Depression Visibility Wind Speed Wind Dir Waves Ship Positions

Dino

Last reported at 2017-Nov-20 00:30 UTC. Time now 2017-Nov-23 01:43 UTC.
Position N 35°45' W 024°33'.

Length 180 m; draft 8.6 m.

Type: Cargo ship. MMSI: 354668000.

Date/timePositionNaut miles runAvg speedWind from/ knotsBaromVisibWave heightAir tempDewpointWater temp
2017-Nov-20 00:30N 35°45' W 024°33'612.4
2017-Nov-19 23:59N 35°45' W 024°25'612.7
2017-Nov-19 23:30N 35°47' W 024°18'612.5
2017-Nov-19 23:00N 35°48' W 024°10'712.7
2017-Nov-19 22:28N 35°49' W 024°02'1112.5
2017-Nov-19 21:34N 35°51' W 023°48'47613.4
2017-Nov-18 10:03N 36°22' W 014°00'7713.7
2017-Nov-18 04:28N 36°22' W 012°25'7014.0
2017-Nov-17 23:27N 36°22' W 010°58'713.9
2017-Nov-17 22:55N 36°22' W 010°49'614.0
2017-Nov-17 22:28N 36°22' W 010°41'1813.9
2017-Nov-17 21:10N 36°22' W 010°18'314.1
2017-Nov-17 20:59N 36°22' W 010°15'713.9
2017-Nov-17 20:31N 36°22' W 010°07'713.6
2017-Nov-17 20:00N 36°22' W 009°59'1013.7
2017-Nov-17 19:16N 36°21' W 009°46'2813.6
2017-Nov-17 17:12N 36°22' W 009°11'313.6
2017-Nov-17 16:59N 36°21' W 009°08'17212.1
2017-Nov-17 02:46N 35°58' W 005°36'312.4
2017-Nov-17 02:30N 35°59' W 005°32'612.0
2017-Nov-17 02:00N 36°01' W 005°25'510.6
2017-Nov-17 01:30N 36°06' W 005°23'3 5.3
2017-Nov-17 00:58N 36°08' W 005°22'0 0.1
2017-Nov-16 23:22N 36°08' W 005°22'0 0.2
2017-Nov-16 22:55N 36°08' W 005°22'0 0.0
2017-Nov-16 22:28N 36°08' W 005°22'0 0.1
2017-Nov-16 21:43N 36°08' W 005°22'0 0.1
2017-Nov-16 21:25N 36°08' W 005°22'3 0.5
2017-Nov-16 15:08N 36°05' W 005°21'0 1.3
2017-Nov-16 14:57N 36°05' W 005°21'1 3.4
2017-Nov-16 14:30N 36°05' W 005°19'3 5.9
2017-Nov-16 14:00N 36°06' W 005°15'3 2.0
2017-Nov-16 12:41N 36°04' W 005°12'20613.0
2017-Nov-15 20:49N 37°10' W 001°09'614.2
2017-Nov-15 20:26N 37°14' W 001°04'614.1
2017-Nov-15 20:00N 37°18' W 000°58'713.9
2017-Nov-15 19:30N 37°22' W 000°51'713.6
2017-Nov-15 19:00N 37°26' W 000°45'713.4
2017-Nov-15 18:30N 37°31' W 000°38'713.2
2017-Nov-15 18:00N 37°35' W 000°32'713.2
2017-Nov-15 17:30N 37°41' W 000°28'713.2
2017-Nov-15 16:57N 37°47' W 000°23'613.1
2017-Nov-15 16:29N 37°52' W 000°19'613.0
2017-Nov-15 16:00N 37°58' W 000°15'40112.8
2017-Nov-14 08:42N 43°21' E 004°58'2 9.2
2017-Nov-14 08:30N 43°23' E 004°58'2 3.6
2017-Nov-14 08:00N 43°24' E 004°60'1 1.4
2017-Nov-14 07:30N 43°24' E 005°01'0 0.0
2017-Nov-14 06:57N 43°24' E 005°01'0 0.0
2017-Nov-14 06:30N 43°24' E 005°01'0 0.0
2017-Nov-14 06:00N 43°24' E 005°01'0 0.0
2017-Nov-14 05:30N 43°24' E 005°01'0 0.0
2017-Nov-14 05:00N 43°24' E 005°01'0 0.0
2017-Nov-14 04:30N 43°24' E 005°01'0 0.0
2017-Nov-14 03:54N 43°24' E 005°01'0 0.0
2017-Nov-14 03:30N 43°24' E 005°01'0 0.0
2017-Nov-14 03:00N 43°24' E 005°01'0 0.0
2017-Nov-14 02:30N 43°24' E 005°01'0 0.0
2017-Nov-14 01:54N 43°24' E 005°01'0 0.0
2017-Nov-14 01:30N 43°24' E 005°01'0 0.0
2017-Nov-14 01:00N 43°24' E 005°01'0 0.0
2017-Nov-14 00:30N 43°24' E 005°01'0 0.0
2017-Nov-14 00:00N 43°24' E 005°01'0 0.0
2017-Nov-13 23:30N 43°24' E 005°01'0 0.0
2017-Nov-13 22:54N 43°24' E 005°01'0 0.0
2017-Nov-13 22:24N 43°24' E 005°01'0 0.0
2017-Nov-13 22:00N 43°24' E 005°01'0 0.0
2017-Nov-13 02:00N 43°24' E 005°01'0 0.0
2017-Nov-13 01:30N 43°24' E 005°01'0 0.0
2017-Nov-13 00:54N 43°24' E 005°01'0 0.0
2017-Nov-13 00:24N 43°24' E 005°01'0 0.0
2017-Nov-12 23:54N 43°24' E 005°01'0 0.0
2017-Nov-12 23:30N 43°24' E 005°01'0 0.0
2017-Nov-12 23:00N 43°24' E 005°01'0 0.0
2017-Nov-12 22:30N 43°24' E 005°01'0 0.0
2017-Nov-12 22:00N 43°24' E 005°01'0 0.0
2017-Nov-12 21:18N 43°24' E 005°01'0 0.0
2017-Nov-12 21:00N 43°24' E 005°01'0 0.0
2017-Nov-12 20:24N 43°24' E 005°01'0 0.0
2017-Nov-12 20:00N 43°24' E 005°01'0 0.0
2017-Nov-12 19:30N 43°24' E 005°01'0 0.0
2017-Nov-12 19:00N 43°24' E 005°01'0 0.0
2017-Nov-12 18:30N 43°24' E 005°01'0 0.0
2017-Nov-12 18:00N 43°24' E 005°01'0 0.0
2017-Nov-12 17:30N 43°24' E 005°01'0 0.0
2017-Nov-12 17:00N 43°24' E 005°01'0 0.0
2017-Nov-12 16:30N 43°24' E 005°01'0 0.0
2017-Nov-12 16:00N 43°24' E 005°01'0 0.0
2017-Nov-12 15:30N 43°24' E 005°01'0 0.0
2017-Nov-12 15:00N 43°24' E 005°01'0 0.0
2017-Nov-12 14:27N 43°24' E 005°01'0 0.0
2017-Nov-12 14:00N 43°24' E 005°01'0 0.0
2017-Nov-12 13:30N 43°24' E 005°01'0 0.0
2017-Nov-12 12:57N 43°24' E 005°01'0 0.0
2017-Nov-12 12:30N 43°24' E 005°01'0 0.0
2017-Nov-12 11:57N 43°24' E 005°01'0 0.0
2017-Nov-12 11:30N 43°24' E 005°01'0 0.0
2017-Nov-12 11:00N 43°24' E 005°01'0 0.0
2017-Nov-12 10:21N 43°24' E 005°01'0 0.0
2017-Nov-12 10:00N 43°24' E 005°01'0 0.0
2017-Nov-12 09:30N 43°24' E 005°01'0 0.0
2017-Nov-12 09:00N 43°24' E 005°01'0 0.0
2017-Nov-12 08:27N 43°24' E 005°01'0 0.0
2017-Nov-12 08:00N 43°24' E 005°01'0 0.0
2017-Nov-12 07:30N 43°24' E 005°01'0 0.0
2017-Nov-12 07:00N 43°24' E 005°01'0 0.0
2017-Nov-12 06:30N 43°24' E 005°01'0 0.0
2017-Nov-12 06:00N 43°24' E 005°01'0 0.0
2017-Nov-12 05:30N 43°24' E 005°01'0 0.0
2017-Nov-12 05:00N 43°24' E 005°01'0 0.0
2017-Nov-12 04:30N 43°24' E 005°01'0 0.0
2017-Nov-12 04:00N 43°24' E 005°01'0 0.0
2017-Nov-12 03:30N 43°24' E 005°01'0 0.0
2017-Nov-12 02:54N 43°24' E 005°01'0 0.0
2017-Nov-12 02:30N 43°24' E 005°01'0 0.0
2017-Nov-12 02:00N 43°24' E 005°01'0 0.0
2017-Nov-12 01:30N 43°24' E 005°01'0 0.0
2017-Nov-12 01:00N 43°24' E 005°01'0 0.0
2017-Nov-12 00:30N 43°24' E 005°01'0 0.0
2017-Nov-11 23:54N 43°24' E 005°01'0 0.0
2017-Nov-11 23:30N 43°24' E 005°01'0 0.0
2017-Nov-11 23:00N 43°24' E 005°01'0 0.0
2017-Nov-11 22:30N 43°24' E 005°01'0 0.0
2017-Nov-11 22:00N 43°24' E 005°01'0 0.0
2017-Nov-11 21:30N 43°24' E 005°01'0 0.0
2017-Nov-11 20:54N 43°24' E 005°01'0 0.0
2017-Nov-11 20:30N 43°24' E 005°01'0 0.0
2017-Nov-11 20:00N 43°24' E 005°01'0 0.0
2017-Nov-11 19:30N 43°24' E 005°01'0 0.0
2017-Nov-11 19:00N 43°24' E 005°01'0 0.0
2017-Nov-11 18:30N 43°24' E 005°01'0 0.0
2017-Nov-11 17:54N 43°24' E 005°01'0 0.0
2017-Nov-11 17:30N 43°24' E 005°01'0 0.0
2017-Nov-11 17:00N 43°24' E 005°01'0 0.0
2017-Nov-11 16:24N 43°24' E 005°01'0 0.0
2017-Nov-11 16:00N 43°24' E 005°01'0 0.0
2017-Nov-11 15:30N 43°24' E 005°01'0 0.0
2017-Nov-11 15:00N 43°24' E 005°01'0 0.0
2017-Nov-11 14:30N 43°24' E 005°01'0 0.0
2017-Nov-11 14:00N 43°24' E 005°01'0 0.0
2017-Nov-11 13:30N 43°24' E 005°01'0 0.0
2017-Nov-11 13:00N 43°24' E 005°01'0 0.0
2017-Nov-11 12:30N 43°24' E 005°01'0 0.0
2017-Nov-11 12:00N 43°24' E 005°01'0 0.0
2017-Nov-11 11:30N 43°24' E 005°01'0 0.0
2017-Nov-11 10:57N 43°24' E 005°01'0 0.0
2017-Nov-11 10:30N 43°24' E 005°01'0 0.0
2017-Nov-11 10:00N 43°24' E 005°01'0 0.0
2017-Nov-11 09:30N 43°24' E 005°01'0 0.0
2017-Nov-11 09:00N 43°24' E 005°01'0 0.0
2017-Nov-11 08:30N 43°24' E 005°01'0 0.0
2017-Nov-11 08:00N 43°24' E 005°01'0 0.0
2017-Nov-11 07:30N 43°24' E 005°01'0 0.0
2017-Nov-11 07:00N 43°24' E 005°01'0 0.0
2017-Nov-11 06:27N 43°24' E 005°01'0 0.0
2017-Nov-11 06:00N 43°24' E 005°01'0 0.0
2017-Nov-11 05:30N 43°24' E 005°01'0 0.0
2017-Nov-11 05:00N 43°24' E 005°01'0 0.0
2017-Nov-11 04:30N 43°24' E 005°01'0 0.0
2017-Nov-11 03:54N 43°24' E 005°01'0 0.0
2017-Nov-11 03:24N 43°24' E 005°01'0 0.0
2017-Nov-11 03:00N 43°24' E 005°01'0 0.0
2017-Nov-11 02:30N 43°24' E 005°01'0 0.0
2017-Nov-11 02:00N 43°24' E 005°01'0 0.0
2017-Nov-11 01:24N 43°24' E 005°01'0 0.0
2017-Nov-11 00:57N 43°24' E 005°01'0 0.0
2017-Nov-11 00:30N 43°24' E 005°01'0 0.0
2017-Nov-11 00:00N 43°24' E 005°01'0 0.0
2017-Nov-10 23:30N 43°24' E 005°01'0 0.0
2017-Nov-10 23:00N 43°24' E 005°01'0 0.0
2017-Nov-10 22:27N 43°24' E 005°01'0 0.0
2017-Nov-10 22:00N 43°24' E 005°01'0 0.0
2017-Nov-10 21:30N 43°24' E 005°01'0 0.0
2017-Nov-10 21:00N 43°24' E 005°01'0 0.0
2017-Nov-10 20:30N 43°24' E 005°01'0 0.0
2017-Nov-10 20:00N 43°24' E 005°01'0 0.0
2017-Nov-10 19:30N 43°24' E 005°01'0 0.0
2017-Nov-10 19:00N 43°24' E 005°01'0 0.0
2017-Nov-10 18:27N 43°24' E 005°01'0 0.0
2017-Nov-10 18:00N 43°24' E 005°01'0 0.0
2017-Nov-10 17:30N 43°24' E 005°01'0 0.0
2017-Nov-10 17:00N 43°24' E 005°01'0 0.0
2017-Nov-10 16:30N 43°24' E 005°01'0 0.0
2017-Nov-10 16:00N 43°24' E 005°01'0 0.0
2017-Nov-10 15:30N 43°24' E 005°01'0 0.0
2017-Nov-10 15:00N 43°24' E 005°01'0 0.0
2017-Nov-10 14:30N 43°24' E 005°01'0 0.0
2017-Nov-10 13:54N 43°24' E 005°01'0 0.0
2017-Nov-10 13:18N 43°24' E 005°01'0 0.0
2017-Nov-10 13:00N 43°24' E 005°01'0 0.0
2017-Nov-10 12:30N 43°24' E 005°01'0 0.0
2017-Nov-10 12:00N 43°24' E 005°01'0 0.0
2017-Nov-10 11:30N 43°24' E 005°01'0 0.0
2017-Nov-10 10:24N 43°24' E 005°01'0 0.0
2017-Nov-10 09:54N 43°24' E 005°01'0 0.0
2017-Nov-10 09:30N 43°24' E 005°01'0 0.0
2017-Nov-10 09:00N 43°24' E 005°01'0 0.0
2017-Nov-10 08:30N 43°24' E 005°01'0 0.0
2017-Nov-10 08:00N 43°24' E 005°01'0 0.0
2017-Nov-10 07:30N 43°24' E 005°01'0 0.0
2017-Nov-10 07:00N 43°24' E 005°01'0 0.0
2017-Nov-10 06:30N 43°24' E 005°01'0 0.0
2017-Nov-10 05:54N 43°24' E 005°01'0 0.0
2017-Nov-10 05:30N 43°24' E 005°01'0 0.0
2017-Nov-10 04:48N 43°24' E 005°01'0 0.0
2017-Nov-10 04:24N 43°24' E 005°01'0 0.0
2017-Nov-10 04:00N 43°24' E 005°01'0 0.0
2017-Nov-10 03:24N 43°24' E 005°01'0 0.0
2017-Nov-10 03:00N 43°24' E 005°01'0 0.0
2017-Nov-10 02:30N 43°24' E 005°01'0 0.0
2017-Nov-10 02:00N 43°24' E 005°01'0 0.0
2017-Nov-10 01:30N 43°24' E 005°01'0 0.0
2017-Nov-10 01:00N 43°24' E 005°01'  
Track history (hours):
 
Tides and Currents Weather Stations Pressure Air Temp Water Temp Dewpoint Dewpoint Depression Visibility Wind Speed Wind Dir Waves Ship Positions

Dino

Last reported at 2017-Nov-20 00:30 UTC. Time now 2017-Nov-23 01:43 UTC.
Position N 35°45' W 024°33'.

Length 180 m; draft 8.6 m.

Type: Cargo ship. MMSI: 354668000.

Date/timePositionNaut miles runAvg speedWind from/ knotsBaromVisibWave heightAir tempDewpointWater temp
2017-Nov-20 00:30N 35°45' W 024°33'612.4
2017-Nov-19 23:59N 35°45' W 024°25'612.7
2017-Nov-19 23:30N 35°47' W 024°18'612.5
2017-Nov-19 23:00N 35°48' W 024°10'712.7
2017-Nov-19 22:28N 35°49' W 024°02'1112.5
2017-Nov-19 21:34N 35°51' W 023°48'47613.4
2017-Nov-18 10:03N 36°22' W 014°00'7713.7
2017-Nov-18 04:28N 36°22' W 012°25'7014.0
2017-Nov-17 23:27N 36°22' W 010°58'713.9
2017-Nov-17 22:55N 36°22' W 010°49'614.0
2017-Nov-17 22:28N 36°22' W 010°41'1813.9
2017-Nov-17 21:10N 36°22' W 010°18'314.1
2017-Nov-17 20:59N 36°22' W 010°15'713.9
2017-Nov-17 20:31N 36°22' W 010°07'713.6
2017-Nov-17 20:00N 36°22' W 009°59'1013.7
2017-Nov-17 19:16N 36°21' W 009°46'2813.6
2017-Nov-17 17:12N 36°22' W 009°11'313.6
2017-Nov-17 16:59N 36°21' W 009°08'17212.1
2017-Nov-17 02:46N 35°58' W 005°36'312.4
2017-Nov-17 02:30N 35°59' W 005°32'612.0
2017-Nov-17 02:00N 36°01' W 005°25'510.6
2017-Nov-17 01:30N 36°06' W 005°23'3 5.3
2017-Nov-17 00:58N 36°08' W 005°22'0 0.1
2017-Nov-16 23:22N 36°08' W 005°22'0 0.2
2017-Nov-16 22:55N 36°08' W 005°22'0 0.0
2017-Nov-16 22:28N 36°08' W 005°22'0 0.1
2017-Nov-16 21:43N 36°08' W 005°22'0 0.1
2017-Nov-16 21:25N 36°08' W 005°22'3 0.5
2017-Nov-16 15:08N 36°05' W 005°21'0 1.3
2017-Nov-16 14:57N 36°05' W 005°21'1 3.4
2017-Nov-16 14:30N 36°05' W 005°19'3 5.9
2017-Nov-16 14:00N 36°06' W 005°15'3 2.0
2017-Nov-16 12:41N 36°04' W 005°12'20613.0
2017-Nov-15 20:49N 37°10' W 001°09'614.2
2017-Nov-15 20:26N 37°14' W 001°04'614.1
2017-Nov-15 20:00N 37°18' W 000°58'713.9
2017-Nov-15 19:30N 37°22' W 000°51'713.6
2017-Nov-15 19:00N 37°26' W 000°45'713.4
2017-Nov-15 18:30N 37°31' W 000°38'713.2
2017-Nov-15 18:00N 37°35' W 000°32'713.2
2017-Nov-15 17:30N 37°41' W 000°28'713.2
2017-Nov-15 16:57N 37°47' W 000°23'613.1
2017-Nov-15 16:29N 37°52' W 000°19'613.0
2017-Nov-15 16:00N 37°58' W 000°15'40112.8
2017-Nov-14 08:42N 43°21' E 004°58'2 9.2
2017-Nov-14 08:30N 43°23' E 004°58'2 3.6
2017-Nov-14 08:00N 43°24' E 004°60'1 1.4
2017-Nov-14 07:30N 43°24' E 005°01'0 0.0
2017-Nov-14 06:57N 43°24' E 005°01'0 0.0
2017-Nov-14 06:30N 43°24' E 005°01'0 0.0
2017-Nov-14 06:00N 43°24' E 005°01'0 0.0
2017-Nov-14 05:30N 43°24' E 005°01'0 0.0
2017-Nov-14 05:00N 43°24' E 005°01'0 0.0
2017-Nov-14 04:30N 43°24' E 005°01'0 0.0
2017-Nov-14 03:54N 43°24' E 005°01'0 0.0
2017-Nov-14 03:30N 43°24' E 005°01'0 0.0
2017-Nov-14 03:00N 43°24' E 005°01'0 0.0
2017-Nov-14 02:30N 43°24' E 005°01'0 0.0
2017-Nov-14 01:54N 43°24' E 005°01'0 0.0
2017-Nov-14 01:30N 43°24' E 005°01'0 0.0
2017-Nov-14 01:00N 43°24' E 005°01'0 0.0
2017-Nov-14 00:30N 43°24' E 005°01'0 0.0
2017-Nov-14 00:00N 43°24' E 005°01'0 0.0
2017-Nov-13 23:30N 43°24' E 005°01'0 0.0
2017-Nov-13 22:54N 43°24' E 005°01'0 0.0
2017-Nov-13 22:24N 43°24' E 005°01'0 0.0
2017-Nov-13 22:00N 43°24' E 005°01'0 0.0
2017-Nov-13 02:00N 43°24' E 005°01'0 0.0
2017-Nov-13 01:30N 43°24' E 005°01'0 0.0
2017-Nov-13 00:54N 43°24' E 005°01'0 0.0
2017-Nov-13 00:24N 43°24' E 005°01'0 0.0
2017-Nov-12 23:54N 43°24' E 005°01'0 0.0
2017-Nov-12 23:30N 43°24' E 005°01'0 0.0
2017-Nov-12 23:00N 43°24' E 005°01'0 0.0
2017-Nov-12 22:30N 43°24' E 005°01'0 0.0
2017-Nov-12 22:00N 43°24' E 005°01'0 0.0
2017-Nov-12 21:18N 43°24' E 005°01'0 0.0
2017-Nov-12 21:00N 43°24' E 005°01'0 0.0
2017-Nov-12 20:24N 43°24' E 005°01'0 0.0
2017-Nov-12 20:00N 43°24' E 005°01'0 0.0
2017-Nov-12 19:30N 43°24' E 005°01'0 0.0
2017-Nov-12 19:00N 43°24' E 005°01'0 0.0
2017-Nov-12 18:30N 43°24' E 005°01'0 0.0
2017-Nov-12 18:00N 43°24' E 005°01'0 0.0
2017-Nov-12 17:30N 43°24' E 005°01'0 0.0
2017-Nov-12 17:00N 43°24' E 005°01'0 0.0
2017-Nov-12 16:30N 43°24' E 005°01'0 0.0
2017-Nov-12 16:00N 43°24' E 005°01'0 0.0
2017-Nov-12 15:30N 43°24' E 005°01'0 0.0
2017-Nov-12 15:00N 43°24' E 005°01'0 0.0
2017-Nov-12 14:27N 43°24' E 005°01'0 0.0
2017-Nov-12 14:00N 43°24' E 005°01'0 0.0
2017-Nov-12 13:30N 43°24' E 005°01'0 0.0
2017-Nov-12 12:57N 43°24' E 005°01'0 0.0
2017-Nov-12 12:30N 43°24' E 005°01'0 0.0
2017-Nov-12 11:57N 43°24' E 005°01'0 0.0
2017-Nov-12 11:30N 43°24' E 005°01'0 0.0
2017-Nov-12 11:00N 43°24' E 005°01'0 0.0
2017-Nov-12 10:21N 43°24' E 005°01'0 0.0
2017-Nov-12 10:00N 43°24' E 005°01'0 0.0
2017-Nov-12 09:30N 43°24' E 005°01'0 0.0
2017-Nov-12 09:00N 43°24' E 005°01'0 0.0
2017-Nov-12 08:27N 43°24' E 005°01'0 0.0
2017-Nov-12 08:00N 43°24' E 005°01'0 0.0
2017-Nov-12 07:30N 43°24' E 005°01'0 0.0
2017-Nov-12 07:00N 43°24' E 005°01'0 0.0
2017-Nov-12 06:30N 43°24' E 005°01'0 0.0
2017-Nov-12 06:00N 43°24' E 005°01'0 0.0
2017-Nov-12 05:30N 43°24' E 005°01'0 0.0
2017-Nov-12 05:00N 43°24' E 005°01'0 0.0
2017-Nov-12 04:30N 43°24' E 005°01'0 0.0
2017-Nov-12 04:00N 43°24' E 005°01'0 0.0
2017-Nov-12 03:30N 43°24' E 005°01'0 0.0
2017-Nov-12 02:54N 43°24' E 005°01'0 0.0
2017-Nov-12 02:30N 43°24' E 005°01'0 0.0
2017-Nov-12 02:00N 43°24' E 005°01'0 0.0
2017-Nov-12 01:30N 43°24' E 005°01'0 0.0
2017-Nov-12 01:00N 43°24' E 005°01'0 0.0
2017-Nov-12 00:30N 43°24' E 005°01'0 0.0
2017-Nov-11 23:54N 43°24' E 005°01'0 0.0
2017-Nov-11 23:30N 43°24' E 005°01'0 0.0
2017-Nov-11 23:00N 43°24' E 005°01'0 0.0
2017-Nov-11 22:30N 43°24' E 005°01'0 0.0
2017-Nov-11 22:00N 43°24' E 005°01'0 0.0
2017-Nov-11 21:30N 43°24' E 005°01'0 0.0
2017-Nov-11 20:54N 43°24' E 005°01'0 0.0
2017-Nov-11 20:30N 43°24' E 005°01'0 0.0
2017-Nov-11 20:00N 43°24' E 005°01'0 0.0
2017-Nov-11 19:30N 43°24' E 005°01'0 0.0
2017-Nov-11 19:00N 43°24' E 005°01'0 0.0
2017-Nov-11 18:30N 43°24' E 005°01'0 0.0
2017-Nov-11 17:54N 43°24' E 005°01'0 0.0
2017-Nov-11 17:30N 43°24' E 005°01'0 0.0
2017-Nov-11 17:00N 43°24' E 005°01'0 0.0
2017-Nov-11 16:24N 43°24' E 005°01'0 0.0
2017-Nov-11 16:00N 43°24' E 005°01'0 0.0
2017-Nov-11 15:30N 43°24' E 005°01'0 0.0
2017-Nov-11 15:00N 43°24' E 005°01'0 0.0
2017-Nov-11 14:30N 43°24' E 005°01'0 0.0
2017-Nov-11 14:00N 43°24' E 005°01'0 0.0
2017-Nov-11 13:30N 43°24' E 005°01'0 0.0
2017-Nov-11 13:00N 43°24' E 005°01'0 0.0
2017-Nov-11 12:30N 43°24' E 005°01'0 0.0
2017-Nov-11 12:00N 43°24' E 005°01'0 0.0
2017-Nov-11 11:30N 43°24' E 005°01'0 0.0
2017-Nov-11 10:57N 43°24' E 005°01'0 0.0
2017-Nov-11 10:30N 43°24' E 005°01'0 0.0
2017-Nov-11 10:00N 43°24' E 005°01'0 0.0
2017-Nov-11 09:30N 43°24' E 005°01'0 0.0
2017-Nov-11 09:00N 43°24' E 005°01'0 0.0
2017-Nov-11 08:30N 43°24' E 005°01'0 0.0
2017-Nov-11 08:00N 43°24' E 005°01'0 0.0
2017-Nov-11 07:30N 43°24' E 005°01'0 0.0
2017-Nov-11 07:00N 43°24' E 005°01'0 0.0
2017-Nov-11 06:27N 43°24' E 005°01'0 0.0
2017-Nov-11 06:00N 43°24' E 005°01'0 0.0
2017-Nov-11 05:30N 43°24' E 005°01'0 0.0
2017-Nov-11 05:00N 43°24' E 005°01'0 0.0
2017-Nov-11 04:30N 43°24' E 005°01'0 0.0
2017-Nov-11 03:54N 43°24' E 005°01'0 0.0
2017-Nov-11 03:24N 43°24' E 005°01'0 0.0
2017-Nov-11 03:00N 43°24' E 005°01'0 0.0
2017-Nov-11 02:30N 43°24' E 005°01'0 0.0
2017-Nov-11 02:00N 43°24' E 005°01'0 0.0
2017-Nov-11 01:24N 43°24' E 005°01'0 0.0
2017-Nov-11 00:57N 43°24' E 005°01'0 0.0
2017-Nov-11 00:30N 43°24' E 005°01'0 0.0
2017-Nov-11 00:00N 43°24' E 005°01'0 0.0
2017-Nov-10 23:30N 43°24' E 005°01'0 0.0
2017-Nov-10 23:00N 43°24' E 005°01'0 0.0
2017-Nov-10 22:27N 43°24' E 005°01'0 0.0
2017-Nov-10 22:00N 43°24' E 005°01'0 0.0
2017-Nov-10 21:30N 43°24' E 005°01'0 0.0
2017-Nov-10 21:00N 43°24' E 005°01'0 0.0
2017-Nov-10 20:30N 43°24' E 005°01'0 0.0
2017-Nov-10 20:00N 43°24' E 005°01'0 0.0
2017-Nov-10 19:30N 43°24' E 005°01'0 0.0
2017-Nov-10 19:00N 43°24' E 005°01'0 0.0
2017-Nov-10 18:27N 43°24' E 005°01'0 0.0
2017-Nov-10 18:00N 43°24' E 005°01'0 0.0
2017-Nov-10 17:30N 43°24' E 005°01'0 0.0
2017-Nov-10 17:00N 43°24' E 005°01'0 0.0
2017-Nov-10 16:30N 43°24' E 005°01'0 0.0
2017-Nov-10 16:00N 43°24' E 005°01'0 0.0
2017-Nov-10 15:30N 43°24' E 005°01'0 0.0
2017-Nov-10 15:00N 43°24' E 005°01'0 0.0
2017-Nov-10 14:30N 43°24' E 005°01'0 0.0
2017-Nov-10 13:54N 43°24' E 005°01'0 0.0
2017-Nov-10 13:18N 43°24' E 005°01'0 0.0
2017-Nov-10 13:00N 43°24' E 005°01'0 0.0
2017-Nov-10 12:30N 43°24' E 005°01'0 0.0
2017-Nov-10 12:00N 43°24' E 005°01'0 0.0
2017-Nov-10 11:30N 43°24' E 005°01'0 0.0
2017-Nov-10 10:24N 43°24' E 005°01'0 0.0
2017-Nov-10 09:54N 43°24' E 005°01'0 0.0
2017-Nov-10 09:30N 43°24' E 005°01'0 0.0
2017-Nov-10 09:00N 43°24' E 005°01'0 0.0
2017-Nov-10 08:30N 43°24' E 005°01'0 0.0
2017-Nov-10 08:00N 43°24' E 005°01'0 0.0
2017-Nov-10 07:30N 43°24' E 005°01'0 0.0
2017-Nov-10 07:00N 43°24' E 005°01'0 0.0
2017-Nov-10 06:30N 43°24' E 005°01'0 0.0
2017-Nov-10 05:54N 43°24' E 005°01'0 0.0
2017-Nov-10 05:30N 43°24' E 005°01'0 0.0
2017-Nov-10 04:48N 43°24' E 005°01'0 0.0
2017-Nov-10 04:24N 43°24' E 005°01'0 0.0
2017-Nov-10 04:00N 43°24' E 005°01'0 0.0
2017-Nov-10 03:24N 43°24' E 005°01'0 0.0
2017-Nov-10 03:00N 43°24' E 005°01'0 0.0
2017-Nov-10 02:30N 43°24' E 005°01'0 0.0
2017-Nov-10 02:00N 43°24' E 005°01'0 0.0
2017-Nov-10 01:30N 43°24' E 005°01'0 0.0
2017-Nov-10 01:00N 43°24' E 005°01'  

Dump ship's entire track history